Byzantion — SZMH — position and weather

sailwx.info

Track history (hours):
 
Tides and Currents Weather Stations Pressure Air Temp Water Temp Dewpoint Dewpoint Depression Visibility Wind Speed Wind Dir Waves Ship Positions

Byzantion

Last reported at 2018-Jul-13 16:20 UTC. Time now 2018-Jul-20 08:39 UTC.
Position N 40°01' E 026°12'.

Length 183 m; draft 8.5 m.

Type: Ship (hazmat cat A). MMSI: 240635000.

Date/timePositionNaut miles runAvg speedWind from/ knotsBaromVisibWave heightAir tempDewpointWater temp
2018-Jul-13 16:20N 40°01' E 026°12'18 7.4
2018-Jul-13 13:53N 39°50' E 025°54'0 0.0
2018-Jul-13 06:28N 39°50' E 025°54'1 1.4
2018-Jul-13 05:56N 39°49' E 025°54'6 7.0
2018-Jul-13 05:03N 39°44' E 025°50'112.7
2018-Jul-13 04:57N 39°42' E 025°49'613.2
2018-Jul-13 04:28N 39°36' E 025°47'11812.5
2018-Jul-12 19:04N 37°38' E 025°52'111.9
2018-Jul-12 19:00N 37°37' E 025°52'611.8
2018-Jul-12 18:30N 37°32' E 025°53'  
2018-Jul-06 15:44N 35°52' E 014°48'0 0.5
2018-Jul-06 15:30N 35°52' E 014°48'1 1.8
2018-Jul-06 15:00N 35°53' E 014°49'4 7.3
2018-Jul-06 14:30N 35°56' E 014°46'4 7.4
2018-Jul-06 14:00N 35°58' E 014°43'1 2.8
2018-Jul-06 13:30N 35°58' E 014°41'1 1.8
2018-Jul-06 13:00N 35°57' E 014°40'2 3.4
2018-Jul-06 12:30N 35°56' E 014°38'2 3.0
2018-Jul-06 11:59N 35°55' E 014°37'1 2.6
2018-Jul-06 11:30N 35°56' E 014°38'1 2.4
2018-Jul-06 11:00N 35°57' E 014°38'1 2.1
2018-Jul-06 10:30N 35°57' E 014°39'3 5.7
2018-Jul-06 10:00N 35°54' E 014°41'3 6.0
2018-Jul-06 09:30N 35°53' E 014°44'3 6.4
2018-Jul-06 09:00N 35°51' E 014°47'3 6.5
2018-Jul-06 08:30N 35°51' E 014°51'3 6.2
2018-Jul-06 08:00N 35°49' E 014°55'3 5.3
2018-Jul-06 07:30N 35°49' E 014°58'1 1.8
2018-Jul-06 07:00N 35°49' E 014°57'0 0.2
2018-Jul-06 06:29N 35°49' E 014°57'1 1.8
2018-Jul-06 06:00N 35°50' E 014°57'1 1.1
2018-Jul-06 05:30N 35°50' E 014°57'0 0.2
2018-Jul-06 04:59N 35°50' E 014°57'0 0.0
2018-Jul-06 04:29N 35°50' E 014°57'0 0.0
2018-Jul-06 03:59N 35°50' E 014°57'0 0.0
2018-Jul-06 03:30N 35°50' E 014°57'0 0.0
2018-Jul-06 03:00N 35°50' E 014°57'0 0.0
2018-Jul-06 02:29N 35°50' E 014°57'0 0.0
2018-Jul-06 02:00N 35°50' E 014°57'0 0.1
2018-Jul-06 01:30N 35°50' E 014°57'0 0.0
2018-Jul-06 01:00N 35°50' E 014°57'0 0.0
2018-Jul-06 00:30N 35°50' E 014°57'0 0.1
2018-Jul-05 23:58N 35°50' E 014°57'0 0.0
2018-Jul-05 23:30N 35°50' E 014°57'0 0.0
2018-Jul-05 23:00N 35°50' E 014°57'0 0.1
2018-Jul-05 22:29N 35°50' E 014°57'0 0.1
2018-Jul-05 22:00N 35°50' E 014°57'0 0.0
2018-Jul-05 21:29N 35°50' E 014°57'0 0.1
2018-Jul-05 21:00N 35°50' E 014°57'0 0.1
2018-Jul-05 20:30N 35°50' E 014°57'0 0.0
2018-Jul-05 19:57N 35°50' E 014°57'0 0.1
2018-Jul-05 19:30N 35°50' E 014°57'0 0.0
2018-Jul-05 19:00N 35°50' E 014°56'0 0.0
2018-Jul-05 18:30N 35°50' E 014°56'0 0.1
2018-Jul-05 18:00N 35°50' E 014°57'0 0.1
2018-Jul-05 17:30N 35°50' E 014°56'0 0.1
2018-Jul-05 17:00N 35°50' E 014°56'0 0.0
2018-Jul-05 16:30N 35°50' E 014°56'0 0.0
2018-Jul-05 16:00N 35°50' E 014°56'0 0.1
2018-Jul-05 15:30N 35°50' E 014°56'0 0.1
2018-Jul-05 15:00N 35°50' E 014°56'0 0.1
2018-Jul-05 14:30N 35°50' E 014°56'0 0.0
2018-Jul-05 13:30N 35°50' E 014°56'0 0.1
2018-Jul-05 13:00N 35°50' E 014°56'0 0.0
2018-Jul-05 12:30N 35°50' E 014°56'0 0.1
2018-Jul-05 12:00N 35°50' E 014°56'0 0.0
2018-Jul-05 11:30N 35°50' E 014°56'0 0.0
2018-Jul-05 11:00N 35°50' E 014°56'0 0.0
2018-Jul-05 10:30N 35°50' E 014°56'0 0.0
2018-Jul-05 10:00N 35°50' E 014°56'0 0.2
2018-Jul-05 09:30N 35°50' E 014°56'1 1.5
2018-Jul-05 09:00N 35°50' E 014°57'2 4.0
2018-Jul-05 08:30N 35°49' E 014°60'2 3.4
2018-Jul-05 08:00N 35°49' E 015°02'3 4.9
2018-Jul-05 07:30N 35°51' E 014°59'3 5.3
2018-Jul-05 07:00N 35°51' E 014°56'45 2.9
2018-Jul-04 15:36N 35°28' E 014°08'213.6
2018-Jul-04 15:29N 35°27' E 014°06'713.7
2018-Jul-04 15:00N 35°23' E 013°60'713.4
2018-Jul-04 14:30N 35°19' E 013°53'713.5
2018-Jul-04 13:59N 35°14' E 013°47'613.3
2018-Jul-04 13:30N 35°11' E 013°40'713.1
2018-Jul-04 13:00N 35°06' E 013°34'713.0
2018-Jul-04 12:30N 35°02' E 013°28'613.0
2018-Jul-04 12:00N 34°58' E 013°22'713.0
2018-Jul-04 11:30N 34°54' E 013°15'713.0
2018-Jul-04 11:00N 34°50' E 013°09'713.0
2018-Jul-04 10:28N 34°46' E 013°03'613.0
2018-Jul-04 10:00N 34°42' E 012°57'713.1
2018-Jul-04 09:30N 34°38' E 012°51'713.1
2018-Jul-04 09:00N 34°34' E 012°45'613.0
2018-Jul-04 08:31N 34°30' E 012°39'612.8
2018-Jul-04 08:01N 34°27' E 012°32'712.9
2018-Jul-04 07:30N 34°24' E 012°25'612.9
2018-Jul-04 07:00N 34°21' E 012°17'612.9
2018-Jul-04 06:30N 34°19' E 012°10'813.0
2018-Jul-04 05:54N 34°15' E 012°02'512.8
2018-Jul-04 05:31N 34°13' E 011°56'  
Track history (hours):
 
Tides and Currents Weather Stations Pressure Air Temp Water Temp Dewpoint Dewpoint Depression Visibility Wind Speed Wind Dir Waves Ship Positions

Byzantion

Last reported at 2018-Jul-13 16:20 UTC. Time now 2018-Jul-20 08:39 UTC.
Position N 40°01' E 026°12'.

Length 183 m; draft 8.5 m.

Type: Ship (hazmat cat A). MMSI: 240635000.

Date/timePositionNaut miles runAvg speedWind from/ knotsBaromVisibWave heightAir tempDewpointWater temp
2018-Jul-13 16:20N 40°01' E 026°12'18 7.4
2018-Jul-13 13:53N 39°50' E 025°54'0 0.0
2018-Jul-13 06:28N 39°50' E 025°54'1 1.4
2018-Jul-13 05:56N 39°49' E 025°54'6 7.0
2018-Jul-13 05:03N 39°44' E 025°50'112.7
2018-Jul-13 04:57N 39°42' E 025°49'613.2
2018-Jul-13 04:28N 39°36' E 025°47'11812.5
2018-Jul-12 19:04N 37°38' E 025°52'111.9
2018-Jul-12 19:00N 37°37' E 025°52'611.8
2018-Jul-12 18:30N 37°32' E 025°53'  
2018-Jul-06 15:44N 35°52' E 014°48'0 0.5
2018-Jul-06 15:30N 35°52' E 014°48'1 1.8
2018-Jul-06 15:00N 35°53' E 014°49'4 7.3
2018-Jul-06 14:30N 35°56' E 014°46'4 7.4
2018-Jul-06 14:00N 35°58' E 014°43'1 2.8
2018-Jul-06 13:30N 35°58' E 014°41'1 1.8
2018-Jul-06 13:00N 35°57' E 014°40'2 3.4
2018-Jul-06 12:30N 35°56' E 014°38'2 3.0
2018-Jul-06 11:59N 35°55' E 014°37'1 2.6
2018-Jul-06 11:30N 35°56' E 014°38'1 2.4
2018-Jul-06 11:00N 35°57' E 014°38'1 2.1
2018-Jul-06 10:30N 35°57' E 014°39'3 5.7
2018-Jul-06 10:00N 35°54' E 014°41'3 6.0
2018-Jul-06 09:30N 35°53' E 014°44'3 6.4
2018-Jul-06 09:00N 35°51' E 014°47'3 6.5
2018-Jul-06 08:30N 35°51' E 014°51'3 6.2
2018-Jul-06 08:00N 35°49' E 014°55'3 5.3
2018-Jul-06 07:30N 35°49' E 014°58'1 1.8
2018-Jul-06 07:00N 35°49' E 014°57'0 0.2
2018-Jul-06 06:29N 35°49' E 014°57'1 1.8
2018-Jul-06 06:00N 35°50' E 014°57'1 1.1
2018-Jul-06 05:30N 35°50' E 014°57'0 0.2
2018-Jul-06 04:59N 35°50' E 014°57'0 0.0
2018-Jul-06 04:29N 35°50' E 014°57'0 0.0
2018-Jul-06 03:59N 35°50' E 014°57'0 0.0
2018-Jul-06 03:30N 35°50' E 014°57'0 0.0
2018-Jul-06 03:00N 35°50' E 014°57'0 0.0
2018-Jul-06 02:29N 35°50' E 014°57'0 0.0
2018-Jul-06 02:00N 35°50' E 014°57'0 0.1
2018-Jul-06 01:30N 35°50' E 014°57'0 0.0
2018-Jul-06 01:00N 35°50' E 014°57'0 0.0
2018-Jul-06 00:30N 35°50' E 014°57'0 0.1
2018-Jul-05 23:58N 35°50' E 014°57'0 0.0
2018-Jul-05 23:30N 35°50' E 014°57'0 0.0
2018-Jul-05 23:00N 35°50' E 014°57'0 0.1
2018-Jul-05 22:29N 35°50' E 014°57'0 0.1
2018-Jul-05 22:00N 35°50' E 014°57'0 0.0
2018-Jul-05 21:29N 35°50' E 014°57'0 0.1
2018-Jul-05 21:00N 35°50' E 014°57'0 0.1
2018-Jul-05 20:30N 35°50' E 014°57'0 0.0
2018-Jul-05 19:57N 35°50' E 014°57'0 0.1
2018-Jul-05 19:30N 35°50' E 014°57'0 0.0
2018-Jul-05 19:00N 35°50' E 014°56'0 0.0
2018-Jul-05 18:30N 35°50' E 014°56'0 0.1
2018-Jul-05 18:00N 35°50' E 014°57'0 0.1
2018-Jul-05 17:30N 35°50' E 014°56'0 0.1
2018-Jul-05 17:00N 35°50' E 014°56'0 0.0
2018-Jul-05 16:30N 35°50' E 014°56'0 0.0
2018-Jul-05 16:00N 35°50' E 014°56'0 0.1
2018-Jul-05 15:30N 35°50' E 014°56'0 0.1
2018-Jul-05 15:00N 35°50' E 014°56'0 0.1
2018-Jul-05 14:30N 35°50' E 014°56'0 0.0
2018-Jul-05 13:30N 35°50' E 014°56'0 0.1
2018-Jul-05 13:00N 35°50' E 014°56'0 0.0
2018-Jul-05 12:30N 35°50' E 014°56'0 0.1
2018-Jul-05 12:00N 35°50' E 014°56'0 0.0
2018-Jul-05 11:30N 35°50' E 014°56'0 0.0
2018-Jul-05 11:00N 35°50' E 014°56'0 0.0
2018-Jul-05 10:30N 35°50' E 014°56'0 0.0
2018-Jul-05 10:00N 35°50' E 014°56'0 0.2
2018-Jul-05 09:30N 35°50' E 014°56'1 1.5
2018-Jul-05 09:00N 35°50' E 014°57'2 4.0
2018-Jul-05 08:30N 35°49' E 014°60'2 3.4
2018-Jul-05 08:00N 35°49' E 015°02'3 4.9
2018-Jul-05 07:30N 35°51' E 014°59'3 5.3
2018-Jul-05 07:00N 35°51' E 014°56'45 2.9
2018-Jul-04 15:36N 35°28' E 014°08'213.6
2018-Jul-04 15:29N 35°27' E 014°06'713.7
2018-Jul-04 15:00N 35°23' E 013°60'713.4
2018-Jul-04 14:30N 35°19' E 013°53'713.5
2018-Jul-04 13:59N 35°14' E 013°47'613.3
2018-Jul-04 13:30N 35°11' E 013°40'713.1
2018-Jul-04 13:00N 35°06' E 013°34'713.0
2018-Jul-04 12:30N 35°02' E 013°28'613.0
2018-Jul-04 12:00N 34°58' E 013°22'713.0
2018-Jul-04 11:30N 34°54' E 013°15'713.0
2018-Jul-04 11:00N 34°50' E 013°09'713.0
2018-Jul-04 10:28N 34°46' E 013°03'613.0
2018-Jul-04 10:00N 34°42' E 012°57'713.1
2018-Jul-04 09:30N 34°38' E 012°51'713.1
2018-Jul-04 09:00N 34°34' E 012°45'613.0
2018-Jul-04 08:31N 34°30' E 012°39'612.8
2018-Jul-04 08:01N 34°27' E 012°32'712.9
2018-Jul-04 07:30N 34°24' E 012°25'612.9
2018-Jul-04 07:00N 34°21' E 012°17'612.9
2018-Jul-04 06:30N 34°19' E 012°10'813.0
2018-Jul-04 05:54N 34°15' E 012°02'512.8
2018-Jul-04 05:31N 34°13' E 011°56'  

Dump ship's entire track history